DLH283 LGAV-EDDF
Flight info
| Callsign | DLH283 |
|---|---|
| Flight time | N/A |
| Altitude | 36000 |
| Route | KOR UL613 XANIS UL995 VARDI DCT DIMIS DCT ADDER DCT PODET DCT SIMBA DCT AKINI T161 DEBHI DEBHI1B |
| Aircraft | A321/M-SDE3FGHIRWY/LB1 |
Departure
| Time | 2026-05-07 06:50 |
|---|---|
| Airport | Athens Eleftherios Venizelos International Airport (LGAV) |
Arrival
| Time | N/A |
|---|---|
| Airport | Frankfurt Main Airport (EDDF) |
| Time | Latitude | Longitude | Altitude | Speed | Heading |
|---|---|---|---|---|---|
| 2026-05-07 06:27 | 37.93834 | 23.95065 | 301 ft | 0 kts | 308° |
| 2026-05-07 06:42 | 37.93828 | 23.95075 | 301 ft | 4 kts | 307° |
| 2026-05-07 06:42 | 37.93812 | 23.95102 | 303 ft | 4 kts | 307° |
| 2026-05-07 06:42 | 37.93799 | 23.95126 | 302 ft | 4 kts | 282° |
| 2026-05-07 06:43 | 37.93803 | 23.95153 | 303 ft | 4 kts | 223° |
| 2026-05-07 06:43 | 37.93816 | 23.95167 | 302 ft | 1 kts | 217° |
| 2026-05-07 06:43 | 37.93818 | 23.95169 | 300 ft | 0 kts | 217° |
| 2026-05-07 06:45 | 37.93818 | 23.95168 | 300 ft | 0 kts | 217° |
| 2026-05-07 06:45 | 37.93801 | 23.95152 | 300 ft | 6 kts | 217° |
| 2026-05-07 06:45 | 37.93762 | 23.95115 | 300 ft | 9 kts | 217° |
| 2026-05-07 06:45 | 37.93700 | 23.95055 | 300 ft | 13 kts | 217° |
| 2026-05-07 06:46 | 37.93618 | 23.94976 | 302 ft | 16 kts | 217° |
| 2026-05-07 06:46 | 37.93528 | 23.94890 | 301 ft | 17 kts | 217° |
| 2026-05-07 06:46 | 37.93429 | 23.94797 | 302 ft | 18 kts | 216° |
| 2026-05-07 06:46 | 37.93326 | 23.94698 | 301 ft | 19 kts | 218° |
| 2026-05-07 06:47 | 37.93220 | 23.94598 | 302 ft | 16 kts | 207° |
| 2026-05-07 06:47 | 37.93108 | 23.94601 | 304 ft | 16 kts | 159° |
| 2026-05-07 06:47 | 37.93018 | 23.94674 | 302 ft | 16 kts | 188° |
| 2026-05-07 06:47 | 37.92924 | 23.94592 | 303 ft | 17 kts | 216° |
| 2026-05-07 06:48 | 37.92828 | 23.94501 | 303 ft | 17 kts | 217° |
| 2026-05-07 06:48 | 37.92729 | 23.94407 | 303 ft | 18 kts | 217° |
| 2026-05-07 06:48 | 37.92660 | 23.94341 | 304 ft | 19 kts | 217° |
| 2026-05-07 06:48 | 37.92562 | 23.94290 | 307 ft | 13 kts | 149° |
| 2026-05-07 06:49 | 37.92521 | 23.94349 | 306 ft | 5 kts | 127° |
| 2026-05-07 06:49 | 37.92488 | 23.94404 | 310 ft | 9 kts | 127° |
| 2026-05-07 06:49 | 37.92488 | 23.94450 | 308 ft | 5 kts | 27° |
| 2026-05-07 06:49 | 37.92540 | 23.94504 | 308 ft | 20 kts | 37° |
| 2026-05-07 06:50 | 37.92862 | 23.94810 | 300 ft | 96 kts | 37° |
| 2026-05-07 06:50 | 37.93581 | 23.95493 | 283 ft | 158 kts | 37° |
| 2026-05-07 06:50 | 37.94543 | 23.96388 | 694 ft | 175 kts | 37° |
| 2026-05-07 06:50 | 37.95512 | 23.97338 | 1425 ft | 177 kts | 38° |
| 2026-05-07 06:51 | 37.96541 | 23.98332 | 1874 ft | 196 kts | 37° |
| 2026-05-07 06:51 | 37.97692 | 23.99434 | 2149 ft | 217 kts | 37° |
| 2026-05-07 06:51 | 37.98960 | 24.00648 | 2379 ft | 241 kts | 37° |
| 2026-05-07 06:51 | 38.00332 | 24.01962 | 2997 ft | 249 kts | 37° |
| 2026-05-07 06:52 | 38.01720 | 24.03299 | 3791 ft | 252 kts | 37° |
| 2026-05-07 06:52 | 38.03121 | 24.04653 | 4532 ft | 256 kts | 37° |
| 2026-05-07 06:52 | 38.04548 | 24.06029 | 5277 ft | 259 kts | 37° |
| 2026-05-07 06:52 | 38.05991 | 24.07414 | 6025 ft | 261 kts | 37° |
| 2026-05-07 06:53 | 38.07446 | 24.08813 | 6762 ft | 264 kts | 37° |
| 2026-05-07 06:53 | 38.08792 | 24.10444 | 7267 ft | 276 kts | 59° |
| 2026-05-07 06:53 | 38.09378 | 24.12777 | 7792 ft | 284 kts | 89° |
| 2026-05-07 06:53 | 38.09024 | 24.15234 | 8439 ft | 287 kts | 116° |
| 2026-05-07 06:54 | 38.07820 | 24.17229 | 9097 ft | 288 kts | 143° |
| 2026-05-07 06:54 | 38.06009 | 24.18299 | 9744 ft | 291 kts | 171° |
| 2026-05-07 06:54 | 38.04006 | 24.18144 | 10371 ft | 293 kts | 200° |
| 2026-05-07 06:54 | 38.02293 | 24.16776 | 10985 ft | 294 kts | 229° |
| 2026-05-07 06:55 | 38.01211 | 24.14553 | 11403 ft | 306 kts | 245° |
| 2026-05-07 06:55 | 38.00276 | 24.12023 | 11537 ft | 327 kts | 246° |
| 2026-05-07 06:55 | 37.99313 | 24.09310 | 11664 ft | 347 kts | 247° |
| 2026-05-07 06:55 | 37.98318 | 24.06481 | 11794 ft | 365 kts | 247° |
| 2026-05-07 06:56 | 37.97257 | 24.03493 | 12117 ft | 376 kts | 246° |
| 2026-05-07 06:56 | 37.96165 | 24.00460 | 12635 ft | 380 kts | 246° |
| 2026-05-07 06:56 | 37.95053 | 23.97402 | 13192 ft | 383 kts | 246° |
| 2026-05-07 06:56 | 37.93933 | 23.94325 | 13748 ft | 386 kts | 246° |
| 2026-05-07 06:57 | 37.92803 | 23.91227 | 14297 ft | 389 kts | 246° |
| 2026-05-07 06:57 | 37.91663 | 23.88102 | 14839 ft | 392 kts | 246° |
| 2026-05-07 06:57 | 37.90515 | 23.84955 | 15370 ft | 394 kts | 246° |
| 2026-05-07 06:57 | 37.89546 | 23.81706 | 15870 ft | 395 kts | 256° |
| 2026-05-07 06:58 | 37.89093 | 23.78276 | 16341 ft | 397 kts | 268° |
| 2026-05-07 06:58 | 37.89158 | 23.74779 | 16830 ft | 398 kts | 275° |
| 2026-05-07 06:58 | 37.89352 | 23.71271 | 17310 ft | 401 kts | 275° |
| 2026-05-07 06:58 | 37.89537 | 23.67741 | 17758 ft | 403 kts | 275° |
| 2026-05-07 06:59 | 37.89712 | 23.64189 | 18189 ft | 405 kts | 274° |
| 2026-05-07 06:59 | 37.89883 | 23.60614 | 18613 ft | 408 kts | 274° |
| 2026-05-07 06:59 | 37.90054 | 23.57020 | 19030 ft | 410 kts | 274° |
| 2026-05-07 06:59 | 37.90227 | 23.53405 | 19439 ft | 412 kts | 274° |
| 2026-05-07 07:00 | 37.90406 | 23.49768 | 19839 ft | 415 kts | 274° |
| 2026-05-07 07:00 | 37.90589 | 23.46109 | 20256 ft | 418 kts | 274° |
| 2026-05-07 07:00 | 37.90771 | 23.42431 | 20656 ft | 420 kts | 274° |
| 2026-05-07 07:00 | 37.90951 | 23.38773 | 21050 ft | 423 kts | 274° |
| 2026-05-07 07:01 | 37.91133 | 23.35045 | 21433 ft | 425 kts | 274° |
| 2026-05-07 07:01 | 37.91312 | 23.31296 | 21800 ft | 427 kts | 274° |
| 2026-05-07 07:01 | 37.91491 | 23.27525 | 22162 ft | 430 kts | 274° |
| 2026-05-07 07:01 | 37.91669 | 23.23732 | 22515 ft | 432 kts | 274° |
| 2026-05-07 07:02 | 37.91845 | 23.19924 | 22860 ft | 434 kts | 274° |
| 2026-05-07 07:02 | 37.92022 | 23.16092 | 23203 ft | 436 kts | 274° |
| 2026-05-07 07:02 | 37.92200 | 23.12246 | 23538 ft | 439 kts | 274° |
| 2026-05-07 07:02 | 37.92377 | 23.08378 | 23884 ft | 441 kts | 274° |
| 2026-05-07 07:03 | 37.92554 | 23.04489 | 24214 ft | 443 kts | 274° |
| 2026-05-07 07:03 | 37.92799 | 23.00593 | 24538 ft | 445 kts | 279° |
| 2026-05-07 07:03 | 37.93520 | 22.96771 | 24844 ft | 447 kts | 289° |
| 2026-05-07 07:03 | 37.94767 | 22.93172 | 25157 ft | 449 kts | 299° |
| 2026-05-07 07:04 | 37.96515 | 22.89876 | 25460 ft | 451 kts | 309° |
| 2026-05-07 07:04 | 37.98697 | 22.87007 | 25751 ft | 453 kts | 317° |
| 2026-05-07 07:04 | 38.01035 | 22.84307 | 26029 ft | 456 kts | 317° |
| 2026-05-07 07:04 | 38.03382 | 22.81592 | 26311 ft | 457 kts | 317° |
| 2026-05-07 07:05 | 38.05732 | 22.78863 | 26574 ft | 458 kts | 317° |
| 2026-05-07 07:05 | 38.08053 | 22.76154 | 26815 ft | 460 kts | 316° |
| 2026-05-07 07:05 | 38.10437 | 22.73362 | 27039 ft | 462 kts | 316° |
| 2026-05-07 07:05 | 38.12804 | 22.70590 | 27254 ft | 463 kts | 316° |
| 2026-05-07 07:06 | 38.15151 | 22.67852 | 27526 ft | 463 kts | 316° |
| 2026-05-07 07:06 | 38.17530 | 22.65093 | 27826 ft | 462 kts | 317° |
| 2026-05-07 07:06 | 38.19902 | 22.62348 | 28116 ft | 462 kts | 317° |
| 2026-05-07 07:06 | 38.22279 | 22.59597 | 28408 ft | 461 kts | 317° |
| 2026-05-07 07:07 | 38.24645 | 22.56854 | 28705 ft | 460 kts | 317° |
| 2026-05-07 07:07 | 38.27004 | 22.54103 | 28990 ft | 460 kts | 316° |
| 2026-05-07 07:07 | 38.29356 | 22.51348 | 29276 ft | 459 kts | 316° |
| 2026-05-07 07:07 | 38.31705 | 22.48595 | 29549 ft | 459 kts | 316° |
| 2026-05-07 07:08 | 38.34049 | 22.45846 | 29853 ft | 458 kts | 316° |
| 2026-05-07 07:08 | 38.36396 | 22.43092 | 30141 ft | 457 kts | 316° |
| 2026-05-07 07:08 | 38.38736 | 22.40349 | 30428 ft | 457 kts | 316° |
| 2026-05-07 07:08 | 38.41074 | 22.37610 | 30721 ft | 455 kts | 316° |
| 2026-05-07 07:09 | 38.43407 | 22.34873 | 31023 ft | 454 kts | 316° |
| 2026-05-07 07:09 | 38.45729 | 22.32143 | 31333 ft | 453 kts | 316° |
| 2026-05-07 07:09 | 38.48037 | 22.29426 | 31629 ft | 451 kts | 316° |
| 2026-05-07 07:09 | 38.50338 | 22.26714 | 31928 ft | 449 kts | 316° |
| 2026-05-07 07:10 | 38.52628 | 22.24009 | 32241 ft | 448 kts | 316° |
| 2026-05-07 07:10 | 38.54914 | 22.21307 | 32527 ft | 447 kts | 315° |
| 2026-05-07 07:10 | 38.57012 | 22.18392 | 32807 ft | 444 kts | 306° |
| 2026-05-07 07:10 | 38.58715 | 22.15116 | 33066 ft | 442 kts | 297° |
| 2026-05-07 07:11 | 38.60174 | 22.11671 | 33336 ft | 440 kts | 297° |
| 2026-05-07 07:11 | 38.61616 | 22.08273 | 33613 ft | 439 kts | 297° |
| 2026-05-07 07:11 | 38.63077 | 22.04837 | 33901 ft | 438 kts | 297° |
| 2026-05-07 07:11 | 38.64526 | 22.01422 | 34164 ft | 437 kts | 297° |
| 2026-05-07 07:12 | 38.66030 | 21.98047 | 34369 ft | 438 kts | 302° |
| 2026-05-07 07:12 | 38.67904 | 21.94977 | 34617 ft | 438 kts | 311° |
| 2026-05-07 07:12 | 38.70142 | 21.92339 | 34903 ft | 438 kts | 320° |
| 2026-05-07 07:12 | 38.72588 | 21.90023 | 35162 ft | 436 kts | 321° |
| 2026-05-07 07:13 | 38.75022 | 21.87728 | 35401 ft | 434 kts | 321° |
| 2026-05-07 07:13 | 38.77450 | 21.85432 | 35649 ft | 433 kts | 321° |
| 2026-05-07 07:13 | 38.79870 | 21.83139 | 35893 ft | 432 kts | 321° |
| 2026-05-07 07:13 | 38.82283 | 21.80847 | 36082 ft | 432 kts | 321° |
| 2026-05-07 07:14 | 38.87115 | 21.76249 | 36136 ft | 433 kts | 321° |
| 2026-05-07 07:14 | 38.91959 | 21.71641 | 36133 ft | 433 kts | 321° |
| 2026-05-07 07:15 | 38.96803 | 21.67020 | 36132 ft | 434 kts | 321° |
| 2026-05-07 07:15 | 39.01623 | 21.62421 | 36139 ft | 435 kts | 321° |
| 2026-05-07 07:16 | 39.06481 | 21.57781 | 36126 ft | 435 kts | 321° |
| 2026-05-07 07:16 | 39.11336 | 21.53123 | 36147 ft | 436 kts | 321° |
| 2026-05-07 07:17 | 39.16200 | 21.48452 | 36155 ft | 436 kts | 321° |
| 2026-05-07 07:17 | 39.21073 | 21.43770 | 36158 ft | 436 kts | 321° |
| 2026-05-07 07:18 | 39.25939 | 21.39080 | 36159 ft | 437 kts | 321° |
| 2026-05-07 07:18 | 39.30811 | 21.34376 | 36164 ft | 438 kts | 321° |
| 2026-05-07 07:19 | 39.35686 | 21.29656 | 36170 ft | 438 kts | 321° |
| 2026-05-07 07:19 | 39.40569 | 21.24919 | 36168 ft | 439 kts | 321° |
| 2026-05-07 07:20 | 39.45454 | 21.20181 | 36174 ft | 439 kts | 321° |
| 2026-05-07 07:20 | 39.50307 | 21.15466 | 36177 ft | 439 kts | 321° |
| 2026-05-07 07:21 | 39.55192 | 21.10715 | 36173 ft | 439 kts | 321° |
| 2026-05-07 07:21 | 39.60076 | 21.05947 | 36177 ft | 439 kts | 321° |
| 2026-05-07 07:22 | 39.64963 | 21.01176 | 36178 ft | 440 kts | 321° |
| 2026-05-07 07:22 | 39.69853 | 20.96392 | 36179 ft | 440 kts | 320° |
| 2026-05-07 07:23 | 39.74743 | 20.91588 | 36184 ft | 440 kts | 320° |
| 2026-05-07 07:23 | 39.79632 | 20.86780 | 36179 ft | 441 kts | 320° |
| 2026-05-07 07:24 | 39.84524 | 20.81969 | 36183 ft | 441 kts | 320° |
| 2026-05-07 07:24 | 39.89420 | 20.77141 | 36179 ft | 442 kts | 320° |
| 2026-05-07 07:25 | 39.96770 | 20.69868 | 36181 ft | 442 kts | 320° |
| 2026-05-07 07:26 | 40.01669 | 20.65018 | 36182 ft | 443 kts | 320° |
| 2026-05-07 07:26 | 40.06601 | 20.60173 | 36176 ft | 445 kts | 324° |
| 2026-05-07 07:27 | 40.12096 | 20.56384 | 36169 ft | 448 kts | 332° |
| 2026-05-07 07:27 | 40.17673 | 20.52832 | 36171 ft | 449 kts | 331° |
| 2026-05-07 07:28 | 40.23282 | 20.49231 | 36173 ft | 449 kts | 331° |
| 2026-05-07 07:28 | 40.28894 | 20.45619 | 36176 ft | 450 kts | 331° |
| 2026-05-07 07:29 | 40.34510 | 20.42012 | 36178 ft | 450 kts | 331° |
| 2026-05-07 07:29 | 40.40140 | 20.38389 | 36184 ft | 450 kts | 331° |
| 2026-05-07 07:30 | 40.45763 | 20.34766 | 36188 ft | 450 kts | 331° |
| 2026-05-07 07:30 | 40.51391 | 20.31135 | 36190 ft | 451 kts | 331° |
| 2026-05-07 07:31 | 40.56928 | 20.27284 | 36197 ft | 450 kts | 328° |
| 2026-05-07 07:31 | 40.62341 | 20.23167 | 36199 ft | 449 kts | 327° |
| 2026-05-07 07:32 | 40.67702 | 20.19047 | 36200 ft | 449 kts | 328° |
| 2026-05-07 07:32 | 40.73122 | 20.14970 | 36200 ft | 448 kts | 328° |
| 2026-05-07 07:33 | 40.78554 | 20.10928 | 36201 ft | 448 kts | 328° |
| 2026-05-07 07:33 | 40.83972 | 20.06860 | 36201 ft | 448 kts | 328° |
| 2026-05-07 07:34 | 40.89391 | 20.02783 | 36200 ft | 448 kts | 328° |
| 2026-05-07 07:34 | 40.94807 | 19.98705 | 36200 ft | 448 kts | 328° |
| 2026-05-07 07:35 | 40.99313 | 19.95299 | 36197 ft | 448 kts | 328° |
| 2026-05-07 07:35 | 41.04737 | 19.91192 | 36200 ft | 449 kts | 327° |
| 2026-05-07 07:36 | 41.10167 | 19.87070 | 36206 ft | 450 kts | 328° |
| 2026-05-07 07:36 | 41.15606 | 19.82935 | 36211 ft | 451 kts | 328° |
| 2026-05-07 07:37 | 41.21052 | 19.78799 | 36213 ft | 451 kts | 328° |
| 2026-05-07 07:37 | 41.26465 | 19.74676 | 36215 ft | 451 kts | 327° |
| 2026-05-07 07:38 | 41.31911 | 19.70513 | 36216 ft | 451 kts | 327° |
| 2026-05-07 07:38 | 41.37348 | 19.66348 | 36216 ft | 451 kts | 327° |
| 2026-05-07 07:39 | 41.42793 | 19.62166 | 36216 ft | 451 kts | 327° |
| 2026-05-07 07:39 | 41.48225 | 19.57992 | 36216 ft | 451 kts | 327° |
| 2026-05-07 07:40 | 41.53664 | 19.53814 | 36216 ft | 451 kts | 327° |
| 2026-05-07 07:40 | 41.59097 | 19.49619 | 36212 ft | 451 kts | 327° |
| 2026-05-07 07:41 | 41.64531 | 19.45423 | 36209 ft | 451 kts | 327° |
| 2026-05-07 07:41 | 41.69966 | 19.41220 | 36208 ft | 451 kts | 327° |